Brooks City Base, Texas
Current Conditions -  °F | °C
As of 7:53 AM on Monday 24 Nov 2014 (Local Time) from KSSF Reporting Station
Clear Clear  
Wind Chill: 50°   Ceiling: Unl
Heat Index: 50°   Visibility: 10mi
Dew Point: 38°   Wind: 3mph
Humidity: 63%   Direction: 290°WNW
Pressure: 30.05"   Gusts: NA
Location:  29.3423°N, 98.4394°W
Report Text: KSSF 241353Z 29003KT 10SM CLR 10/03 A3005 RMK AO2 SLP175 T01000033
Loading
Personal Weather Stations






























Interactive Weather Map New forecast layout! Learn more

10-Day Weather Forecast

Advertisements
Track Severe Weather on mobile